Time;durP1;ratioP1;P1;durP2;ratioP2;P2;SDS_P1;SDS_P2;PMS_P1;PMS_P2;Temp;Humidity;BMP_temperature;BMP_pressure;BME280_temperature;BME280_humidity;BME280_pressure;Samples;Min_cycle;Max_cycle;Signal;HPM_P1;HPM_P2
2022/04/01 00:00:42;;;;;;;7.23;5.47;;;;;;;6.15;37.97;99084.91;10366335;28;20221;-83
2022/04/01 00:05:44;;;;;;;6.43;5.40;;;;;;;6.15;38.77;99087.69;10382679;28;20525;-83
2022/04/01 00:10:46;;;;;;;5.90;5.30;;;;;;;5.44;39.35;99107.56;10383363;28;20197;-84
2022/04/01 00:15:50;;;;;;;5.70;5.20;;;;;;;5.46;38.74;99108.88;10365749;28;20283;-83
2022/04/01 00:20:52;;;;;;;8.23;5.43;;;;;;;6.06;38.29;99104.66;10365646;28;20229;-83
2022/04/01 00:25:54;;;;;;;8.57;5.80;;;;;;;6.28;38.41;99109.00;10381355;28;20231;-83
2022/04/01 00:30:56;;;;;;;5.63;5.13;;;;;;;6.12;38.63;99113.66;10348982;28;20522;-83
2022/04/01 00:36:01;;;;;;;7.73;5.87;;;;;;;6.53;37.49;99105.03;10365074;28;20549;-84
2022/04/01 00:41:03;;;;;;;8.47;6.23;;;;;;;6.31;37.52;99115.91;10364179;28;20284;-83
2022/04/01 00:46:05;;;;;;;7.47;6.00;;;;;;;5.90;38.05;99122.50;10382110;28;20197;-81
2022/04/01 00:51:09;;;;;;;5.93;5.43;;;;;;;6.47;37.06;99131.69;10337811;28;20655;-84
2022/04/01 00:56:11;;;;;;;6.70;5.80;;;;;;;6.16;37.34;99126.63;10404904;28;20299;-83
2022/04/01 01:01:14;;;;;;;6.03;5.43;;;;;;;6.14;38.11;99114.94;10371450;28;20495;-83
2022/04/01 01:06:18;;;;;;;6.37;5.77;;;;;;;5.14;39.55;99134.88;10364361;28;20533;-83
2022/04/01 01:11:21;;;;;;;7.40;5.30;;;;;;;5.26;38.76;99120.94;10363874;28;20197;-83
2022/04/01 01:16:24;;;;;;;5.63;4.30;;;;;;;5.93;37.82;99121.81;10347606;28;20264;-83
2022/04/01 01:21:27;;;;;;;5.50;4.47;;;;;;;4.91;39.30;99137.16;10330667;28;20525;-84
2022/04/01 01:26:35;;;;;;;5.00;4.50;;;;;;;6.23;37.14;99126.06;10379161;28;20201;-83
2022/04/01 01:31:37;;;;;;;4.60;4.07;;;;;;;6.05;36.35;99141.47;10379596;28;20598;-83
2022/04/01 01:36:40;;;;;;;6.03;4.77;;;;;;;6.34;36.79;99138.47;10378580;28;20594;-84
2022/04/01 01:41:43;;;;;;;5.10;4.40;;;;;;;6.86;36.47;99135.81;10362880;28;20217;-84
2022/04/01 01:46:46;;;;;;;7.77;4.37;;;;;;;6.50;37.12;99142.22;10361878;28;20209;-83
2022/04/01 01:57:13;;;;;;;4.63;3.20;;;;;;;6.01;37.02;99140.50;10376685;28;20594;-83
2022/04/01 02:02:15;;;;;;;3.27;2.90;;;;;;;6.04;36.94;99146.25;10368287;28;20280;-83
2022/04/01 02:07:18;;;;;;;3.70;3.23;;;;;;;5.60;38.32;99142.22;10362164;28;20189;-84
2022/04/01 02:12:20;;;;;;;3.13;2.80;;;;;;;5.80;37.61;99149.00;10324530;28;20201;-83
2022/04/01 02:17:22;;;;;;;2.40;2.20;;;;;;;5.78;37.25;99156.94;10337206;28;20222;-85
2022/04/01 02:22:25;;;;;;;3.60;2.00;;;;;;;5.87;36.82;99162.44;10371877;28;20557;-86
2022/04/01 02:27:28;;;;;;;2.10;1.90;;;;;;;6.47;37.11;99159.75;10389177;28;20676;-82
2022/04/01 02:32:31;;;;;;;2.17;2.07;;;;;;;4.94;38.69;99167.28;10396222;28;20208;-82
2022/04/01 02:37:45;;;;;;;2.27;2.10;;;;;;;6.17;36.78;99166.75;10402616;28;20204;-83
2022/04/01 02:42:50;;;;;;;1.70;1.60;;;;;;;5.17;38.13;99172.56;10377716;28;20285;-83
2022/04/01 02:47:55;;;;;;;2.17;1.97;;;;;;;5.76;37.47;99171.28;10376557;28;20205;-82
2022/04/01 02:52:59;;;;;;;2.10;2.00;;;;;;;5.85;37.03;99165.59;10362088;28;20197;-84
2022/04/01 02:58:01;;;;;;;2.23;2.00;;;;;;;5.77;37.68;99170.13;10360199;28;20475;-83
2022/04/01 03:03:06;;;;;;;1.83;1.73;;;;;;;5.64;36.80;99164.78;10331509;28;20263;-82
2022/04/01 03:08:09;;;;;;;1.60;1.50;;;;;;;6.28;36.44;99162.31;10406065;28;20208;-82
2022/04/01 03:13:12;;;;;;;2.20;2.10;;;;;;;5.90;36.79;99164.56;10359049;28;20327;-83
2022/04/01 03:18:40;;;;;;;2.10;1.90;;;;;;;6.04;36.52;99174.31;10395575;28;20251;-83
2022/04/01 03:23:46;;;;;;;2.20;2.00;;;;;;;5.25;38.03;99180.09;10408841;28;20503;-85
2022/04/01 03:28:52;;;;;;;2.07;1.97;;;;;;;5.43;37.33;99192.81;10401913;28;20205;-84
2022/04/01 03:33:56;;;;;;;1.90;1.80;;;;;;;5.44;37.39;99188.84;10351794;28;20236;-84
2022/04/01 03:38:59;;;;;;;2.37;1.60;;;;;;;5.34;37.20;99194.88;10366974;28;20205;-82
2022/04/01 03:44:11;;;;;;;2.73;1.70;;;;;;;3.91;39.67;99207.66;10383334;28;20306;-82
2022/04/01 03:49:25;;;;;;;2.03;1.90;;;;;;;5.17;38.17;99206.19;10377711;28;20264;-82
2022/04/01 03:54:32;;;;;;;1.87;1.77;;;;;;;4.89;38.85;99215.09;10346258;28;20299;-83
2022/04/01 03:59:41;;;;;;;2.03;1.90;;;;;;;5.19;37.92;99212.28;10367035;28;20255;-84
2022/04/01 04:05:02;;;;;;;1.43;1.33;;;;;;;5.37;37.28;99211.81;10375016;28;20255;-84
2022/04/01 04:10:08;;;;;;;1.43;1.33;;;;;;;4.92;37.95;99222.81;10359759;28;20279;-84
2022/04/01 04:15:40;;;;;;;2.80;2.50;;;;;;;5.60;36.53;99225.50;10369678;28;20217;-83
2022/04/01 04:20:58;;;;;;;1.57;1.47;;;;;;;5.85;36.74;99232.09;10369408;28;20229;-83
2022/04/01 04:26:11;;;;;;;1.37;1.27;;;;;;;5.43;36.45;99237.66;10360994;28;20216;-83
2022/04/01 04:31:26;;;;;;;1.60;1.50;;;;;;;5.87;36.59;99230.59;10378803;28;20200;-83
2022/04/01 04:36:49;;;;;;;1.63;1.53;;;;;;;6.21;35.97;99249.06;10360988;28;20213;-83
2022/04/01 04:41:52;;;;;;;2.03;1.27;;;;;;;5.77;36.03;99261.84;10364061;28;20216;-83
2022/04/01 04:47:07;;;;;;;1.80;1.23;;;;;;;5.47;37.56;99267.47;10346273;28;20264;-83
2022/04/01 04:52:11;;;;;;;1.53;1.30;;;;;;;4.64;37.86;99283.25;10357785;28;20200;-85
2022/04/01 04:57:28;;;;;;;1.60;1.50;;;;;;;5.18;37.05;99280.69;10377420;28;20205;-83
2022/04/01 05:02:42;;;;;;;0.90;0.90;;;;;;;5.21;37.14;99288.41;10359661;28;20478;-84
2022/04/01 05:08:28;;;;;;;2.13;1.40;;;;;;;4.35;37.94;99293.16;10347015;28;20259;-84
2022/04/01 05:14:06;;;;;;;2.90;1.30;;;;;;;5.24;36.41;99301.75;10379974;28;20274;-85
2022/04/01 05:19:10;;;;;;;2.13;1.83;;;;;;;6.03;35.09;99317.75;10386777;28;20205;-83
2022/04/01 05:24:18;;;;;;;1.77;1.63;;;;;;;5.65;36.54;99315.06;10361476;28;20742;-83
2022/04/01 05:29:27;;;;;;;1.50;1.40;;;;;;;5.20;36.58;99320.38;10376346;28;20213;-83
2022/04/01 05:34:44;;;;;;;1.53;1.43;;;;;;;5.91;35.77;99326.91;10372895;28;20202;-83
2022/04/01 05:39:47;;;;;;;2.00;1.90;;;;;;;5.89;36.18;99336.84;10400272;28;20212;-82
2022/04/01 05:44:51;;;;;;;3.70;1.37;;;;;;;5.13;36.57;99345.31;10400902;28;20240;-83
2022/04/01 05:49:57;;;;;;;1.80;1.70;;;;;;;4.60;37.77;99347.47;10418804;28;20213;-83
2022/04/01 05:55:00;;;;;;;2.80;1.67;;;;;;;4.41;38.24;99347.78;10400230;28;20208;-83
2022/04/01 06:00:05;;;;;;;1.83;1.53;;;;;;;4.66;37.52;99364.88;10368386;28;20232;-83
2022/04/01 06:05:22;;;;;;;3.97;1.90;;;;;;;5.52;36.58;99358.97;10375883;28;20279;-84
2022/04/01 06:10:46;;;;;;;3.23;2.00;;;;;;;6.01;35.75;99364.97;10402197;28;20594;-82
2022/04/01 06:17:00;;;;;;;2.37;1.67;;;;;;;4.68;36.77;99366.22;10388634;28;20294;-83
2022/04/01 06:22:17;;;;;;;1.50;1.40;;;;;;;5.92;35.66;99384.66;10415410;28;20225;-83
2022/04/01 06:27:28;;;;;;;2.20;1.40;;;;;;;4.74;37.39;99394.88;10404358;28;20257;-83
2022/04/01 06:32:48;;;;;;;2.50;1.50;;;;;;;5.55;35.79;99403.13;10375011;28;20308;-83
2022/04/01 06:37:57;;;;;;;1.60;1.50;;;;;;;5.22;36.80;99397.38;10384320;28;20208;-83
2022/04/01 06:43:00;;;;;;;1.53;1.20;;;;;;;3.79;38.12;99405.19;10376660;28;20224;-83
2022/04/01 06:48:21;;;;;;;1.60;1.50;;;;;;;5.11;36.78;99405.31;10371613;28;20251;-83
2022/04/01 06:53:41;;;;;;;1.20;1.10;;;;;;;4.11;38.19;99413.13;10387439;28;20307;-84
2022/04/01 06:59:22;;;;;;;2.27;1.57;;;;;;;5.08;36.14;99424.75;10307280;28;20534;-83
2022/04/01 07:04:25;;;;;;;2.10;1.97;;;;;;;5.14;36.08;99423.44;10339748;28;20252;-85
2022/04/01 07:09:27;;;;;;;2.17;1.70;;;;;;;5.40;36.58;99435.38;10399159;28;20605;-84
2022/04/01 07:14:31;;;;;;;1.93;1.73;;;;;;;4.37;36.99;99439.16;10390454;28;20228;-83
2022/04/01 07:19:34;;;;;;;1.77;1.53;;;;;;;4.02;38.05;99452.25;10396289;28;20208;-83
2022/04/01 07:24:36;;;;;;;2.67;1.97;;;;;;;4.28;37.70;99443.06;10342047;28;20221;-84
2022/04/01 07:29:38;;;;;;;2.73;1.90;;;;;;;5.01;36.06;99444.06;10356381;28;20209;-83
2022/04/01 07:34:42;;;;;;;1.53;1.43;;;;;;;4.72;36.91;99465.19;10361792;28;20201;-84
2022/04/01 07:39:44;;;;;;;2.10;1.90;;;;;;;4.94;36.21;99474.56;10360607;28;20212;-85
2022/04/01 07:44:48;;;;;;;2.03;1.87;;;;;;;4.72;35.77;99492.38;10340748;28;20256;-84
2022/04/01 07:49:51;;;;;;;1.67;1.57;;;;;;;4.98;36.46;99478.34;10343448;28;20213;-83
2022/04/01 07:54:53;;;;;;;1.70;1.60;;;;;;;3.95;36.68;99495.84;10408175;28;20254;-83
2022/04/01 07:59:55;;;;;;;1.90;1.57;;;;;;;3.69;38.36;99488.19;10389794;28;20245;-83
2022/04/01 08:04:58;;;;;;;1.80;1.70;;;;;;;4.59;35.93;99504.56;10360939;28;20224;-83
2022/04/01 08:10:00;;;;;;;2.33;1.83;;;;;;;4.67;35.77;99503.72;10423838;28;20204;-85
2022/04/01 08:15:03;;;;;;;2.50;1.87;;;;;;;5.08;35.91;99512.44;10407370;28;20621;-84
2022/04/01 08:20:07;;;;;;;1.87;1.70;;;;;;;4.53;37.08;99515.06;10406585;28;20290;-83
2022/04/01 08:25:11;;;;;;;3.47;1.73;;;;;;;4.33;36.54;99522.09;10406396;28;20228;-86
2022/04/01 08:30:13;;;;;;;1.60;1.50;;;;;;;5.56;34.77;99528.16;10390394;28;20254;-84
2022/04/01 08:35:17;;;;;;;2.10;1.93;;;;;;;4.17;36.87;99531.28;10405915;28;20204;-83
2022/04/01 08:40:19;;;;;;;2.37;2.17;;;;;;;5.03;35.55;99532.19;10406367;28;20192;-85
2022/04/01 08:45:22;;;;;;;2.30;1.93;;;;;;;5.28;34.43;99543.75;10389043;28;20298;-83
2022/04/01 08:50:25;;;;;;;2.50;2.23;;;;;;;4.93;35.74;99563.34;10339059;28;20522;-84
2022/04/01 08:55:27;;;;;;;3.80;2.10;;;;;;;5.64;34.79;99563.78;10350558;28;20255;-82
2022/04/01 09:00:30;;;;;;;2.53;1.83;;;;;;;5.51;34.45;99562.00;10382455;28;20201;-83
2022/04/01 09:05:33;;;;;;;2.73;2.33;;;;;;;3.91;36.75;99575.94;10397183;28;20228;-83
2022/04/01 09:10:55;;;;;;;2.37;2.17;;;;;;;4.48;36.90;99587.16;10403346;28;20671;-82
2022/04/01 09:15:57;;;;;;;2.53;2.30;;;;;;;5.35;36.14;99574.88;10403280;28;20289;-82
2022/04/01 09:21:00;;;;;;;2.90;1.77;;;;;;;5.85;34.47;99574.28;10359845;28;20268;-82
2022/04/01 09:26:03;;;;;;;2.40;1.93;;;;;;;4.58;36.40;99600.88;10352719;28;20700;-83
2022/04/01 09:31:10;;;;;;;2.97;2.00;;;;;;;5.07;36.57;99600.44;10360290;28;20260;-86
2022/04/01 09:36:33;;;;;;;4.07;2.03;;;;;;;5.19;35.60;99601.75;10380459;28;20552;-83
2022/04/01 09:41:45;;;;;;;2.10;1.90;;;;;;;4.87;36.68;99601.09;10406587;28;20270;-85
2022/04/01 09:47:05;;;;;;;1.57;1.47;;;;;;;4.49;36.72;99616.81;10403325;28;20251;-85
2022/04/01 09:52:16;;;;;;;2.37;1.77;;;;;;;5.98;35.03;99606.91;10376930;28;20255;-84
2022/04/01 09:57:21;;;;;;;3.17;1.83;;;;;;;4.14;37.97;99613.88;10391452;28;20680;-83
2022/04/01 10:02:23;;;;;;;2.00;1.80;;;;;;;5.40;35.46;99619.56;10376882;28;20595;-83
2022/04/01 10:07:26;;;;;;;3.33;2.10;;;;;;;5.68;35.68;99614.44;10383190;28;20197;-83
2022/04/01 10:12:31;;;;;;;2.50;2.30;;;;;;;5.50;36.55;99624.81;10354248;28;20205;-83
2022/04/01 10:17:36;;;;;;;2.10;1.90;;;;;;;4.84;37.52;99629.75;10381584;28;20217;-83
2022/04/01 10:22:41;;;;;;;2.17;1.97;;;;;;;5.05;37.32;99636.34;10413805;28;20263;-83
2022/04/01 10:27:52;;;;;;;2.60;2.40;;;;;;;4.98;36.65;99636.03;10398209;28;20263;-84
2022/04/01 10:32:54;;;;;;;2.83;2.50;;;;;;;5.17;36.98;99643.28;10392190;28;20193;-84
2022/04/01 10:38:06;;;;;;;3.50;2.53;;;;;;;5.30;36.11;99643.13;10384282;28;20290;-83
2022/04/01 10:43:28;;;;;;;3.70;2.20;;;;;;;5.23;36.78;99653.19;10400756;28;20703;-83
2022/04/01 10:53:52;;;;;;;2.43;2.10;;;;;;;4.85;37.32;99659.41;10394130;28;20536;-83
2022/04/01 10:59:14;;;;;;;2.80;2.47;;;;;;;5.58;36.54;99659.59;10414641;28;20731;-82
2022/04/01 11:04:17;;;;;;;2.70;2.27;;;;;;;4.72;37.62;99663.16;10396090;28;20274;-82
2022/04/01 11:09:51;;;;;;;4.77;2.43;;;;;;;5.40;37.35;99656.00;10380918;28;20205;-82
2022/04/01 11:14:53;;;;;;;3.27;2.47;;;;;;;5.60;36.39;99657.28;10360100;28;20530;-83
2022/04/01 11:20:05;;;;;;;4.17;2.67;;;;;;;5.34;37.02;99680.56;10387794;28;20212;-84
2022/04/01 11:25:10;;;;;;;2.37;2.17;;;;;;;5.29;37.41;99679.91;10392476;28;20229;-83
2022/04/01 11:30:14;;;;;;;3.67;2.80;;;;;;;5.10;37.76;99678.22;10354104;28;20200;-82
2022/04/01 11:35:20;;;;;;;3.00;2.70;;;;;;;3.96;39.16;99685.69;10362763;28;20201;-82
2022/04/01 11:40:26;;;;;;;3.47;3.17;;;;;;;5.12;37.41;99691.91;10380564;28;20297;-83
2022/04/01 11:45:37;;;;;;;4.57;2.87;;;;;;;4.56;39.20;99681.56;10394828;28;20224;-83
2022/04/01 11:50:44;;;;;;;4.10;2.83;;;;;;;5.46;36.43;99682.69;10401531;28;20262;-82
2022/04/01 11:55:47;;;;;;;4.33;2.97;;;;;;;5.42;36.92;99688.13;10395191;28;20209;-82
2022/04/01 12:00:50;;;;;;;4.07;2.90;;;;;;;5.76;37.46;99690.13;10353446;28;20204;-85
2022/04/01 12:05:53;;;;;;;5.63;3.20;;;;;;;5.45;36.95;99701.50;10387477;28;20269;-82
2022/04/01 12:11:00;;;;;;;3.83;3.13;;;;;;;4.63;39.48;99704.31;10355816;28;20232;-81
2022/04/01 12:16:02;;;;;;;3.40;3.10;;;;;;;6.08;36.77;99704.75;10350745;28;21058;-84
2022/04/01 12:21:05;;;;;;;5.47;3.03;;;;;;;5.75;37.54;99708.13;10367816;28;20236;-83
2022/04/01 12:26:07;;;;;;;3.83;3.00;;;;;;;6.51;36.53;99716.69;10354574;28;20311;-90
2022/04/01 12:31:20;;;;;;;4.23;3.10;;;;;;;5.53;37.98;99699.88;10351341;28;20209;-86
2022/04/01 12:36:36;;;;;;;2.70;2.50;;;;;;;5.83;37.45;99721.31;10363118;28;20243;-85
2022/04/01 12:41:58;;;;;;;5.33;2.80;;;;;;;5.26;38.16;99725.41;10346443;28;20287;-84
2022/04/01 12:47:03;;;;;;;3.10;2.57;;;;;;;6.07;36.80;99719.94;10347307;28;20367;-84
2022/04/01 12:52:14;;;;;;;6.37;3.17;;;;;;;5.45;36.92;99728.69;10350414;28;20283;-85
2022/04/01 12:57:21;;;;;;;3.80;3.13;;;;;;;5.52;37.42;99734.66;10354077;28;20280;-85
2022/04/01 13:02:25;;;;;;;4.80;4.00;;;;;;;5.35;37.49;99735.47;10368053;28;20232;-88
2022/04/01 13:07:27;;;;;;;4.70;4.27;;;;;;;5.53;37.48;99736.31;10351458;28;20217;-83
2022/04/01 13:12:32;;;;;;;6.73;4.23;;;;;;;6.68;35.87;99726.22;10363921;28;20240;-87
2022/04/01 13:17:49;;;;;;;5.90;5.20;;;;;;;5.40;38.43;99732.50;10348498;28;20314;-86
2022/04/01 13:22:52;;;;;;;5.30;4.67;;;;;;;5.66;37.25;99740.97;10364722;28;20716;-86
2022/04/01 13:27:57;;;;;;;7.03;5.17;;;;;;;6.83;35.90;99736.94;10351387;28;20286;-83
2022/04/01 13:33:00;;;;;;;7.13;5.93;;;;;;;6.07;37.04;99746.03;10353904;28;20241;-85
2022/04/01 13:38:02;;;;;;;5.50;4.80;;;;;;;6.28;37.14;99754.59;10348597;28;20283;-85
2022/04/01 13:43:04;;;;;;;6.60;5.90;;;;;;;5.17;38.99;99758.16;10346977;28;20723;-87
2022/04/01 13:48:12;;;;;;;6.10;4.83;;;;;;;6.13;36.95;99744.72;10362893;28;20688;-85
2022/04/01 13:53:14;;;;;;;5.23;4.73;;;;;;;5.34;38.82;99755.41;10349268;28;20282;-87
2022/04/01 13:58:17;;;;;;;6.20;4.90;;;;;;;4.55;40.38;99749.88;10349545;28;20605;-87
2022/04/01 14:03:19;;;;;;;5.73;4.20;;;;;;;5.22;39.23;99750.44;10365240;28;20281;-85
2022/04/01 14:08:26;;;;;;;5.23;4.73;;;;;;;6.01;37.88;99758.59;10370582;28;20231;-89
2022/04/01 14:13:28;;;;;;;6.10;4.47;;;;;;;6.06;38.81;99754.81;10373809;28;20233;-89
2022/04/01 14:18:50;;;;;;;4.97;4.47;;;;;;;5.43;38.77;99767.44;10372512;28;20193;-87
2022/04/01 14:23:52;;;;;;;5.30;4.23;;;;;;;5.29;39.77;99778.00;10371633;28;20256;-88
2022/04/01 14:30:15;;;;;;;5.43;4.83;;;;;;;5.43;39.27;99781.47;10353076;28;20217;-89
2022/04/01 14:34:18;;;;;;;4.07;3.47;;;;;;;5.46;39.76;99786.41;10365352;28;20534;-87
2022/04/01 14:39:21;;;;;;;4.03;2.97;;;;;;;5.39;39.00;99786.09;10373982;28;20232;-87
2022/04/01 14:44:24;;;;;;;5.77;2.73;;;;;;;4.00;41.78;99808.91;10347609;28;20953;-89
2022/04/01 14:49:27;;;;;;;3.17;2.33;;;;;;;4.79;40.40;99795.13;10345707;28;20233;-87
2022/04/01 14:54:29;;;;;;;3.83;2.23;;;;;;;5.90;37.58;99795.75;10343135;28;20264;-83
2022/04/01 14:59:31;;;;;;;3.13;2.33;;;;;;;5.55;39.02;99815.28;10366199;28;20259;-89
2022/04/01 15:04:34;;;;;;;3.57;2.93;;;;;;;6.35;37.32;99811.03;10351207;28;20330;-85
2022/04/01 15:09:38;;;;;;;5.47;4.97;;;;;;;5.47;39.33;99807.69;10367250;28;20232;-89
2022/04/01 15:14:40;;;;;;;6.07;5.37;;;;;;;6.13;37.89;99814.03;10377645;28;20231;-88
2022/04/01 15:19:43;;;;;;;9.63;8.60;;;;;;;5.69;38.84;99812.38;10363683;28;20684;-89
2022/04/01 15:24:45;;;;;;;11.70;9.33;;;;;;;6.34;37.38;99812.19;10344018;28;20283;-89
2022/04/01 15:29:47;;;;;;;10.47;8.97;;;;;;;4.75;40.15;99822.13;10353923;28;20557;-84
2022/04/01 15:34:49;;;;;;;7.17;6.47;;;;;;;5.16;39.64;99818.19;10381305;28;20224;-87
2022/04/01 15:39:54;;;;;;;8.57;7.67;;;;;;;6.18;37.80;99816.69;10357820;28;20228;-88
2022/04/01 15:44:57;;;;;;;13.73;10.70;;;;;;;6.64;36.98;99820.72;10366476;28;20580;-87
2022/04/01 15:49:59;;;;;;;7.97;7.20;;;;;;;6.31;37.17;99828.91;10362764;28;20235;-89
2022/04/01 15:55:03;;;;;;;6.50;5.83;;;;;;;6.52;37.22;99827.88;10342658;28;20645;-90
2022/04/01 16:00:06;;;;;;;5.10;4.60;;;;;;;6.60;36.79;99828.16;10381130;28;20606;-89
2022/04/01 16:05:18;;;;;;;5.33;4.23;;;;;;;6.33;37.84;99841.41;10377715;28;20275;-87
2022/04/01 16:10:23;;;;;;;5.73;5.13;;;;;;;6.27;38.31;99841.94;10363270;28;20249;-89
2022/04/01 16:15:25;;;;;;;6.73;5.23;;;;;;;6.24;37.61;99854.66;10368403;28;20251;-90
2022/04/01 16:20:28;;;;;;;6.23;5.63;;;;;;;5.32;39.90;99853.81;10373866;28;20213;-89
2022/04/01 16:25:30;;;;;;;5.77;5.17;;;;;;;5.31;39.96;99868.16;10372955;28;20256;-90
2022/04/01 16:30:33;;;;;;;6.70;5.70;;;;;;;5.68;38.33;99867.63;10368243;28;20232;-89
2022/04/01 16:35:35;;;;;;;7.17;6.43;;;;;;;5.90;37.91;99877.09;10388883;28;20272;-88
2022/04/01 16:40:44;;;;;;;7.30;6.20;;;;;;;5.38;39.49;99879.75;10371301;28;20266;-84
2022/04/01 16:45:47;;;;;;;7.97;5.77;;;;;;;5.51;39.04;99887.22;10373444;28;20580;-86
2022/04/01 16:50:50;;;;;;;7.60;6.83;;;;;;;6.14;37.88;99892.31;10381587;28;20247;-88
2022/04/01 16:55:52;;;;;;;6.33;5.70;;;;;;;6.15;37.58;99895.94;10388087;28;20201;-87
2022/04/01 17:00:55;;;;;;;5.97;5.47;;;;;;;4.98;39.59;99916.16;10383156;28;20198;-87
2022/04/01 17:16:39;;;;;;;7.33;6.40;;;;;;;5.61;39.00;99902.91;10356820;28;20232;-90
2022/04/01 17:21:42;;;;;;;7.57;5.97;;;;;;;5.11;39.52;99918.03;10359097;28;20224;-87
2022/04/01 17:26:44;;;;;;;10.30;7.77;;;;;;;6.06;38.58;99915.59;10389682;28;20256;-89
2022/04/01 17:31:51;;;;;;;7.37;6.67;;;;;;;6.18;38.53;99914.94;10344864;28;20299;-83
2022/04/01 17:36:54;;;;;;;8.73;6.70;;;;;;;5.21;39.29;99913.31;10349046;28;20262;-87
2022/04/01 17:41:57;;;;;;;6.90;6.20;;;;;;;4.96;40.02;99920.44;10369708;28;20232;-86
2022/04/01 17:47:03;;;;;;;6.40;5.80;;;;;;;5.41;39.19;99923.97;10365283;28;20256;-81
2022/04/01 17:52:06;;;;;;;6.00;5.43;;;;;;;5.82;38.53;99930.03;10348320;28;20278;-81
2022/04/01 17:57:09;;;;;;;6.00;5.50;;;;;;;5.58;39.33;99946.44;10379208;28;20282;-82
2022/04/01 18:02:14;;;;;;;6.30;5.70;;;;;;;4.95;40.39;99956.00;10371414;28;20232;-84
2022/04/01 18:07:19;;;;;;;5.47;4.97;;;;;;;4.95;40.45;99958.81;10368833;28;20249;-84
2022/04/01 18:12:22;;;;;;;6.57;4.93;;;;;;;5.62;38.54;99957.84;10371118;28;20286;-83
2022/04/01 18:17:26;;;;;;;5.97;5.47;;;;;;;4.39;41.52;99976.97;10382452;28;20247;-82
2022/04/01 18:22:29;;;;;;;6.90;6.17;;;;;;;5.07;39.95;99981.47;10384197;28;20236;-82
2022/04/01 18:27:50;;;;;;;8.03;6.70;;;;;;;5.73;38.86;99987.28;10393935;28;20652;-82
2022/04/01 18:33:03;;;;;;;8.13;5.93;;;;;;;5.16;39.69;99997.53;10365700;28;20275;-84
2022/04/01 18:38:14;;;;;;;7.03;6.17;;;;;;;4.79;40.99;100007.13;10363760;28;20236;-83
2022/04/01 18:43:19;;;;;;;8.13;6.33;;;;;;;4.98;40.93;100019.00;10358551;28;20660;-82
2022/04/01 18:48:22;;;;;;;7.10;6.37;;;;;;;5.48;39.80;100019.63;10362662;28;20264;-82
2022/04/01 18:53:24;;;;;;;10.67;6.70;;;;;;;5.44;38.99;100018.59;10366422;28;20229;-83
2022/04/01 18:58:29;;;;;;;6.57;5.97;;;;;;;5.40;39.10;100035.25;10356297;28;20245;-83
2022/04/01 19:03:33;;;;;;;7.60;6.77;;;;;;;4.27;41.51;100029.84;10369503;28;20244;-83
2022/04/01 19:08:42;;;;;;;8.10;7.00;;;;;;;5.19;39.76;100039.72;10345751;28;20670;-83
2022/04/01 19:13:45;;;;;;;9.40;7.33;;;;;;;4.16;41.27;100050.81;10380506;28;20669;-82
2022/04/01 19:18:48;;;;;;;7.83;7.13;;;;;;;5.25;39.53;100052.47;10358240;28;20301;-83
2022/04/01 19:23:51;;;;;;;7.37;6.67;;;;;;;5.46;39.35;100049.97;10373926;28;20283;-83
2022/04/01 19:28:53;;;;;;;6.73;6.13;;;;;;;5.58;39.30;100063.38;10386241;28;20663;-83
2022/04/01 19:33:55;;;;;;;6.70;6.07;;;;;;;4.49;40.89;100065.50;10358404;28;20241;-83
2022/04/01 19:38:57;;;;;;;6.80;6.03;;;;;;;5.16;39.54;100070.38;10380708;28;20557;-83
2022/04/01 19:44:00;;;;;;;6.90;6.30;;;;;;;3.98;42.00;100071.34;10364922;28;20240;-83
2022/04/01 19:49:02;;;;;;;7.33;6.73;;;;;;;4.69;40.64;100075.41;10343530;28;20267;-84
2022/04/01 19:54:05;;;;;;;7.57;6.67;;;;;;;5.41;39.04;100072.53;10397884;28;20282;-83
2022/04/01 19:59:07;;;;;;;7.33;6.60;;;;;;;4.58;40.80;100086.03;10371368;28;20314;-83
2022/04/01 20:04:10;;;;;;;7.40;6.57;;;;;;;4.22;41.31;100094.34;10369782;28;20258;-84
2022/04/01 20:09:12;;;;;;;8.80;6.10;;;;;;;4.71;40.59;100089.94;10380932;28;20636;-85
2022/04/01 20:14:14;;;;;;;6.97;5.80;;;;;;;4.81;39.82;100100.06;10360078;28;20322;-84
2022/04/01 20:19:16;;;;;;;6.40;5.80;;;;;;;5.72;38.52;100100.59;10342605;28;20310;-84
2022/04/01 20:24:19;;;;;;;5.83;5.23;;;;;;;5.64;38.23;100102.19;10377698;28;20275;-85
2022/04/01 20:29:21;;;;;;;6.83;5.20;;;;;;;4.15;40.57;100115.47;10367340;28;20232;-83
2022/04/01 20:34:24;;;;;;;9.77;5.00;;;;;;;3.94;41.83;100115.03;10373604;28;20229;-85
2022/04/01 20:39:26;;;;;;;10.87;8.47;;;;;;;5.67;38.65;100110.00;10372651;28;20590;-84
2022/04/01 20:44:29;;;;;;;6.47;5.70;;;;;;;5.24;39.79;100118.09;10404163;28;20236;-84
2022/04/01 20:49:31;;;;;;;7.20;5.40;;;;;;;5.34;39.39;100119.78;10381978;28;20302;-82
2022/04/01 20:54:33;;;;;;;6.97;5.23;;;;;;;5.43;39.01;100126.28;10373325;28;20601;-83
2022/04/01 20:59:36;;;;;;;6.93;5.60;;;;;;;5.55;38.78;100129.34;10360144;28;20232;-84
2022/04/01 21:04:38;;;;;;;5.10;4.60;;;;;;;4.73;39.65;100135.25;10359542;28;20650;-84
2022/04/01 21:09:40;;;;;;;6.17;4.30;;;;;;;5.49;38.47;100130.63;10372456;28;20213;-85
2022/04/01 21:14:43;;;;;;;9.27;4.33;;;;;;;5.96;37.79;100131.09;10372187;28;20291;-85
2022/04/01 21:19:45;;;;;;;6.07;4.57;;;;;;;5.47;38.44;100135.72;10376870;28;20236;-84
2022/04/01 21:24:47;;;;;;;6.60;4.70;;;;;;;4.38;40.74;100145.22;10359617;28;20233;-85
2022/04/01 21:29:52;;;;;;;6.07;4.60;;;;;;;5.33;39.07;100146.16;10372964;28;20236;-85
2022/04/01 21:34:54;;;;;;;5.93;4.37;;;;;;;5.08;39.27;100142.84;10381729;28;20201;-84
2022/04/01 21:39:58;;;;;;;6.87;4.67;;;;;;;5.88;38.02;100134.69;10360237;28;20197;-84
2022/04/01 21:45:02;;;;;;;5.83;5.20;;;;;;;5.68;38.35;100141.69;10369532;28;20225;-84
2022/04/01 21:50:05;;;;;;;7.97;4.70;;;;;;;6.37;37.07;100142.00;10370274;28;20598;-83
2022/04/01 21:55:07;;;;;;;8.67;4.40;;;;;;;5.89;37.54;100145.59;10374959;28;20562;-84
2022/04/01 22:00:38;;;;;;;4.97;4.40;;;;;;;6.15;37.52;100146.56;10352265;28;20206;-86
2022/04/01 22:05:41;;;;;;;4.73;4.23;;;;;;;6.01;37.15;100150.63;10364251;28;20213;-84
2022/04/01 22:10:44;;;;;;;6.37;4.50;;;;;;;6.26;36.73;100147.09;10360068;28;20213;-83
2022/04/01 22:15:46;;;;;;;5.57;3.87;;;;;;;6.33;36.29;100147.44;10377634;28;20634;-84
2022/04/01 22:20:48;;;;;;;6.53;3.90;;;;;;;5.90;37.41;100154.84;10368584;28;20257;-83
2022/04/01 22:25:50;;;;;;;5.90;3.90;;;;;;;6.67;36.55;100157.16;10359323;28;20283;-84
2022/04/01 22:30:52;;;;;;;5.10;4.10;;;;;;;6.53;36.47;100155.28;10360335;28;20625;-83
2022/04/01 22:35:55;;;;;;;5.83;4.23;;;;;;;6.31;37.08;100161.00;10380734;28;20197;-84
2022/04/01 22:41:03;;;;;;;7.73;5.13;;;;;;;6.15;37.30;100162.56;10343064;28;20204;-84
2022/04/01 22:46:07;;;;;;;6.60;5.00;;;;;;;6.44;36.76;100159.22;10378822;28;20711;-83
2022/04/01 22:51:10;;;;;;;7.07;5.23;;;;;;;6.28;37.03;100164.44;10359664;28;20224;-84
2022/04/01 22:56:13;;;;;;;6.30;4.60;;;;;;;5.97;37.37;100166.44;10377561;28;20601;-83
2022/04/01 23:01:15;;;;;;;5.00;3.83;;;;;;;5.81;38.17;100171.59;10402694;28;20193;-83
2022/04/01 23:06:18;;;;;;;5.87;3.97;;;;;;;6.23;36.84;100173.00;10383167;28;20629;-83
2022/04/01 23:11:20;;;;;;;5.10;3.47;;;;;;;6.82;35.77;100166.00;10368798;28;20209;-83
2022/04/01 23:16:24;;;;;;;4.00;3.60;;;;;;;6.04;36.64;100172.44;10377940;28;20649;-84
2022/04/01 23:21:27;;;;;;;5.60;3.80;;;;;;;6.97;35.45;100166.69;10376781;28;20200;-83
2022/04/01 23:26:29;;;;;;;4.77;3.73;;;;;;;6.38;36.43;100178.19;10423461;28;20229;-84
2022/04/01 23:31:31;;;;;;;3.90;3.50;;;;;;;6.58;36.14;100176.81;10387338;28;20205;-83
2022/04/01 23:36:33;;;;;;;7.27;3.67;;;;;;;6.95;35.52;100168.97;10413869;28;20540;-83
2022/04/01 23:41:36;;;;;;;4.37;3.80;;;;;;;6.86;35.35;100161.34;10360142;28;20216;-85
2022/04/01 23:46:38;;;;;;;5.57;3.03;;;;;;;7.13;34.62;100154.59;10425046;28;20216;-84
2022/04/01 23:51:40;;;;;;;5.07;3.13;;;;;;;6.77;35.80;100162.50;10411028;28;20262;-87
2022/04/01 23:56:42;;;;;;;4.43;3.63;;;;;;;6.92;35.32;100164.00;10407650;28;20247;-83
